Time;durP1;ratioP1;P1;durP2;ratioP2;P2;SDS_P1;SDS_P2;PMS_P1;PMS_P2;Temp;Humidity;BMP_temperature;BMP_pressure;BME280_temperature;BME280_humidity;BME280_pressure;Samples;Min_cycle;Max_cycle;Signal;HPM_P1;HPM_P2
2023/03/27 00:01:18;;;;;;;;;2.00;1.00;;;;;12.67;70.14;101123.59;5076778;28;45792;-76
2023/03/27 00:03:47;;;;;;;;;3.33;2.00;;;;;12.62;70.56;101129.53;5076537;28;46120;-77
2023/03/27 00:06:15;;;;;;;;;2.33;1.00;;;;;12.62;70.87;101129.53;5074260;28;45413;-79
2023/03/27 00:08:42;;;;;;;;;3.50;2.00;;;;;12.59;70.69;101132.94;5075679;28;45517;-77
2023/03/27 00:11:08;;;;;;;;;4.00;2.00;;;;;12.57;70.93;101129.38;5074057;28;45469;-78
2023/03/27 00:13:35;;;;;;;;;2.00;2.00;;;;;12.57;70.81;101129.38;5075106;28;46250;-78
2023/03/27 00:16:01;;;;;;;;;4.67;3.00;;;;;12.58;70.95;101132.91;5077401;28;45405;-78
2023/03/27 00:18:28;;;;;;;;;2.00;2.00;;;;;12.58;70.80;101146.91;5076832;28;45375;-79
2023/03/27 00:20:59;;;;;;;;;4.00;2.33;;;;;12.53;70.39;101144.16;5045750;28;45327;-75
2023/03/27 00:23:28;;;;;;;;;3.00;3.00;;;;;12.42;70.56;101124.56;5071160;28;45482;-79
2023/03/27 00:25:56;;;;;;;;;3.00;2.00;;;;;12.33;70.33;101130.41;5068624;28;45381;-75
2023/03/27 00:28:25;;;;;;;;;4.50;3.00;;;;;12.39;70.80;101142.78;5076968;28;45870;-77
2023/03/27 00:30:53;;;;;;;;;5.00;4.25;;;;;12.31;70.03;101129.47;5074821;28;45667;-72
2023/03/27 00:33:19;;;;;;;;;3.67;1.00;;;;;12.39;70.34;101141.91;5059237;28;45467;-78
2023/03/27 00:35:45;;;;;;;;;3.25;2.50;;;;;12.31;70.19;101119.00;5073791;28;45383;-77
2023/03/27 00:38:12;;;;;;;;;4.00;2.00;;;;;12.43;69.85;101139.44;5075330;28;45445;-73
2023/03/27 00:40:38;;;;;;;;;2.50;1.50;;;;;12.48;69.99;101153.56;5071647;28;45489;-79
2023/03/27 00:43:26;;;;;;;;;2.75;1.75;;;;;12.20;69.46;101095.91;5058806;28;45663;-79
2023/03/27 00:46:06;;;;;;;;;5.75;2.00;;;;;12.42;69.76;101150.78;5075657;27;45727;-74
2023/03/27 00:48:35;;;;;;;;;2.25;1.00;;;;;12.43;69.59;101154.28;5058696;28;45497;-73
2023/03/27 00:51:03;;;;;;;;;2.75;2.50;;;;;12.21;70.15;101135.22;5077063;28;45446;-73
2023/03/27 00:53:29;;;;;;;;;4.75;2.25;;;;;12.26;70.44;101141.53;5075287;28;45568;-79
2023/03/27 00:56:00;;;;;;;;;5.00;2.75;;;;;12.21;70.16;101145.72;5073270;28;45432;-79
2023/03/27 00:58:32;;;;;;;;;3.00;2.00;;;;;12.18;70.69;101150.88;5067331;28;45766;-78
2023/03/27 01:00:58;;;;;;;;;4.33;2.67;;;;;12.26;70.37;101145.88;5066271;28;45248;-79
2023/03/27 01:03:28;;;;;;;;;2.75;2.25;;;;;12.31;70.72;101142.56;5058020;28;46278;-79
2023/03/27 01:05:56;;;;;;;;;4.33;1.00;;;;;12.31;70.59;101125.94;5055607;28;45456;-78
2023/03/27 01:08:23;;;;;;;;;3.00;2.00;;;;;12.37;70.37;101139.22;5068925;28;45552;-76
2023/03/27 01:11:37;;;;;;;;;4.25;2.75;;;;;12.34;70.31;101145.28;5076841;28;45465;-79
2023/03/27 01:14:21;;;;;;;;;3.75;2.00;;;;;12.38;69.90;101150.63;5010952;28;45541;-77
2023/03/27 01:16:46;;;;;;;;;3.25;2.25;;;;;12.39;69.81;101145.41;5055594;28;45285;-78
2023/03/27 01:19:35;;;;;;;;;3.00;2.00;;;;;12.32;70.25;101151.31;5072969;28;45616;-78
2023/03/27 01:22:08;;;;;;;;;3.00;1.00;;;;;12.29;70.16;101151.19;5058576;28;45390;-73
2023/03/27 01:25:07;;;;;;;;;3.00;2.00;;;;;12.36;69.84;101142.72;5073214;28;45508;-79
2023/03/27 01:27:51;;;;;;;;;4.00;1.67;;;;;12.41;69.71;101141.09;5073392;28;45426;-75
2023/03/27 01:30:28;;;;;;;;;3.67;2.00;;;;;12.37;69.80;101127.88;5072921;28;45654;-78
2023/03/27 01:33:24;;;;;;;;;6.50;5.25;;;;;12.52;69.55;101144.97;5074784;28;45562;-79
2023/03/27 01:36:12;;;;;;;;;3.00;2.00;;;;;12.41;69.77;101146.34;5075835;28;46186;-75
2023/03/27 01:39:04;;;;;;;;;3.00;3.00;;;;;12.46;69.77;101144.78;5073292;28;45481;-79
2023/03/27 01:41:41;;;;;;;;;5.67;3.00;;;;;12.47;69.50;101145.66;5068496;28;45419;-79
2023/03/27 01:44:13;;;;;;;;;2.00;1.33;;;;;12.52;69.53;101144.97;5075955;28;45627;-79
2023/03/27 01:46:54;;;;;;;;;3.67;2.00;;;;;12.56;69.66;101155.56;5054321;28;46217;-73
2023/03/27 01:49:38;;;;;;;;;2.00;2.00;;;;;12.56;69.15;101147.69;5068724;28;45544;-77
2023/03/27 01:52:09;;;;;;;;;2.75;1.50;;;;;12.49;69.60;101142.28;5071268;28;45164;-77
2023/03/27 01:54:40;;;;;;;;;2.00;2.00;;;;;12.48;69.15;101131.72;5074514;28;45417;-79
2023/03/27 01:57:07;;;;;;;;;3.00;2.00;;;;;12.57;69.19;101138.97;5056660;28;46437;-79
2023/03/27 01:59:38;;;;;;;;;5.00;3.00;;;;;12.58;69.05;101140.78;5066393;27;45516;-78
2023/03/27 02:02:24;;;;;;;;;4.25;1.25;;;;;12.52;69.15;101126.63;5073186;28;45374;-79
2023/03/27 02:04:56;;;;;;;;;5.25;2.00;;;;;12.54;69.34;101137.16;5046773;28;45556;-75
2023/03/27 02:07:32;;;;;;;;;5.00;2.75;;;;;12.47;69.34;101115.13;5073539;28;46181;-76
2023/03/27 02:10:02;;;;;;;;;6.00;2.00;;;;;12.47;68.95;101119.47;5072714;28;45412;-78
2023/03/27 02:12:32;;;;;;;;;3.67;1.67;;;;;12.57;69.12;101125.88;5056401;28;45490;-79
2023/03/27 02:15:13;;;;;;;;;4.25;2.00;;;;;12.61;68.83;101130.38;5064251;28;45479;-76
2023/03/27 02:18:08;;;;;;;;;2.75;2.00;;;;;12.56;68.76;101124.13;5072027;27;46496;-75
2023/03/27 02:20:36;;;;;;;;;5.75;1.00;;;;;12.48;69.16;101122.13;5058333;28;45588;-78
2023/03/27 02:23:03;;;;;;;;;4.33;1.33;;;;;12.46;68.91;101122.94;5055492;28;45508;-79
2023/03/27 02:25:31;;;;;;;;;4.00;2.00;;;;;12.43;68.86;101120.22;5073052;28;46177;-78
2023/03/27 02:28:15;;;;;;;;;3.00;2.00;;;;;12.43;68.49;101109.72;5078122;28;46356;-74
2023/03/27 02:30:56;;;;;;;;;4.67;2.67;;;;;12.42;68.58;101114.09;5076678;28;45616;-72
2023/03/27 02:33:32;;;;;;;;;2.67;1.00;;;;;12.39;68.46;101100.00;5061021;28;45372;-73
2023/03/27 02:36:21;;;;;;;;;2.75;2.00;;;;;12.28;68.84;101108.41;5061929;28;45561;-79
2023/03/27 02:39:08;;;;;;;;;5.25;1.75;;;;;12.26;68.76;101112.72;5071347;28;47237;-78
2023/03/27 02:41:56;;;;;;;;;5.50;2.50;;;;;12.29;68.86;101106.66;5075198;28;45481;-79
2023/03/27 02:44:38;;;;;;;;;3.00;2.00;;;;;12.27;68.65;101101.38;5076947;28;45521;-75
2023/03/27 02:47:09;;;;;;;;;5.00;2.00;;;;;12.37;68.42;101112.16;5076864;28;45601;-79
2023/03/27 02:49:41;;;;;;;;;2.33;1.33;;;;;12.38;67.94;101114.84;5075349;28;45378;-79
2023/03/27 02:52:13;;;;;;;;;3.00;1.00;;;;;12.42;68.23;101118.44;5075898;28;45222;-78
2023/03/27 02:54:43;;;;;;;;;2.00;1.00;;;;;12.41;68.71;101135.88;5058881;28;45437;-79
2023/03/27 02:57:15;;;;;;;;;4.25;2.50;;;;;12.30;68.65;101108.47;5077141;28;45374;-78
2023/03/27 02:59:46;;;;;;;;;6.67;2.33;;;;;12.30;69.24;101108.47;5058544;28;45459;-79
2023/03/27 03:02:18;;;;;;;;;3.00;1.00;;;;;12.33;68.67;101112.06;5076101;28;45496;-76
2023/03/27 03:04:55;;;;;;;;;2.00;2.00;;;;;12.24;68.76;101116.13;5076498;28;45617;-76
2023/03/27 03:07:25;;;;;;;;;2.33;1.33;;;;;12.05;69.14;101131.22;5058959;28;45417;-79
2023/03/27 03:09:52;;;;;;;;;1.67;1.33;;;;;12.00;69.37;101134.53;5058758;28;46205;-79
2023/03/27 03:12:17;;;;;;;;;2.33;2.00;;;;;11.98;69.29;101144.97;5057285;28;45583;-76
2023/03/27 03:14:43;;;;;;;;;1.67;0.67;;;;;11.82;69.61;101121.69;5057757;28;45565;-79
2023/03/27 03:17:10;;;;;;;;;1.00;0.00;;;;;11.88;69.79;101132.38;5075008;28;45444;-79
2023/03/27 03:19:36;;;;;;;;;2.25;0.75;;;;;12.03;69.56;101137.25;5076107;28;45479;-80
2023/03/27 03:22:03;;;;;;;;;2.00;0.67;;;;;11.98;70.17;101144.03;5054549;28;45387;-77
2023/03/27 03:24:28;;;;;;;;;2.25;1.00;;;;;11.93;69.99;101129.06;5054254;28;45525;-76
2023/03/27 03:26:54;;;;;;;;;3.00;1.00;;;;;11.93;69.91;101115.09;5076472;28;45483;-77
2023/03/27 03:29:20;;;;;;;;;3.00;1.50;;;;;12.04;69.53;101121.59;5074787;28;45553;-79
2023/03/27 03:31:45;;;;;;;;;2.00;1.00;;;;;12.04;69.78;101120.72;5075891;28;45433;-79
2023/03/27 03:34:17;;;;;;;;;4.00;0.67;;;;;12.03;69.67;101125.03;5075724;28;45635;-79
2023/03/27 03:36:47;;;;;;;;;2.00;1.00;;;;;12.07;69.30;101123.41;5076451;28;45431;-75
2023/03/27 03:39:14;;;;;;;;;1.33;1.00;;;;;12.01;69.28;101117.97;5059771;28;45495;-72
2023/03/27 03:41:40;;;;;;;;;4.50;2.00;;;;;11.97;69.91;101142.28;5075818;28;45409;-72
2023/03/27 03:44:06;;;;;;;;;2.67;1.00;;;;;11.99;70.04;101136.25;5075953;28;45623;-73
2023/03/27 03:46:32;;;;;;;;;3.00;1.25;;;;;11.98;70.03;101129.25;5075882;28;45820;-73
2023/03/27 03:48:59;;;;;;;;;1.00;1.00;;;;;12.09;69.67;101138.34;5075587;28;45564;-73
2023/03/27 03:51:25;;;;;;;;;4.00;2.00;;;;;12.05;70.29;101125.09;5075102;28;45256;-78
2023/03/27 03:53:50;;;;;;;;;2.00;1.00;;;;;12.06;69.33;101119.03;5077031;28;45483;-78
2023/03/27 03:56:16;;;;;;;;;1.00;0.33;;;;;12.16;70.17;101133.31;5079614;28;45340;-79
2023/03/27 03:58:42;;;;;;;;;1.00;1.00;;;;;12.24;69.93;101142.31;5079065;28;45568;-79
2023/03/27 04:01:09;;;;;;;;;1.00;1.00;;;;;12.23;69.95;101138.78;5078960;28;46176;-78
2023/03/27 04:03:35;;;;;;;;;1.00;0.33;;;;;12.20;69.86;101130.84;5061646;28;45340;-78
2023/03/27 04:06:04;;;;;;;;;2.33;1.00;;;;;12.29;70.06;101138.09;5079907;28;45379;-78
2023/03/27 04:08:31;;;;;;;;;3.00;2.00;;;;;12.27;69.70;101138.03;5078760;28;45430;-78
2023/03/27 04:10:56;;;;;;;;;1.33;1.00;;;;;12.32;69.51;101146.06;5054124;28;45577;-79
2023/03/27 04:13:23;;;;;;;;;1.33;1.00;;;;;12.28;69.52;101141.59;5069124;28;45362;-78
2023/03/27 04:15:50;;;;;;;;;1.00;1.00;;;;;12.26;69.45;101144.13;5074586;28;45783;-78
2023/03/27 04:18:18;;;;;;;;;3.00;1.00;;;;;12.11;70.08;101143.63;5076172;28;46216;-79
2023/03/27 04:20:48;;;;;;;;;2.67;1.00;;;;;12.03;70.35;101134.63;5051561;28;45485;-77
2023/03/27 04:23:17;;;;;;;;;2.00;1.00;;;;;11.85;70.60;101127.00;5069714;28;45462;-78
2023/03/27 04:25:47;;;;;;;;;5.00;3.25;;;;;11.86;70.79;101145.41;5044318;28;45444;-78
2023/03/27 04:28:16;;;;;;;;;3.33;1.00;;;;;11.73;70.70;101123.13;5062009;28;46134;-79
2023/03/27 04:30:43;;;;;;;;;2.67;1.33;;;;;11.77;70.86;101136.34;5078094;28;45497;-77
2023/03/27 04:33:17;;;;;;;;;2.67;1.00;;;;;11.73;70.68;101136.22;5078706;28;46151;-77
2023/03/27 04:35:46;;;;;;;;;2.00;1.00;;;;;11.61;70.71;101125.31;5079499;28;45332;-78
2023/03/27 04:38:13;;;;;;;;;2.00;0.00;;;;;11.67;70.66;101146.47;5081963;28;45515;-76
2023/03/27 04:40:45;;;;;;;;;2.25;1.50;;;;;11.69;70.85;101146.53;5071907;28;45422;-73
2023/03/27 04:43:12;;;;;;;;;1.00;0.67;;;;;11.66;70.57;101143.81;5063474;28;44807;-77
2023/03/27 04:45:38;;;;;;;;;2.00;1.00;;;;;11.63;70.38;101141.97;5065686;28;44763;-72
2023/03/27 04:48:05;;;;;;;;;5.00;2.00;;;;;11.66;70.67;101144.72;5101927;28;45359;-72
2023/03/27 04:50:31;;;;;;;;;2.33;1.00;;;;;11.66;70.75;101129.00;5100228;27;45880;-73
2023/03/27 04:53:00;;;;;;;;;3.75;2.00;;;;;11.81;70.91;101140.84;5068653;28;45363;-79
2023/03/27 04:55:26;;;;;;;;;3.00;1.33;;;;;11.78;70.71;101135.47;5072532;28;45446;-78
2023/03/27 04:58:01;;;;;;;;;2.00;1.33;;;;;11.86;70.23;101139.28;5075953;28;45957;-78
2023/03/27 05:00:28;;;;;;;;;2.00;1.00;;;;;11.88;69.78;101142.84;5079939;28;45441;-79
2023/03/27 05:02:54;;;;;;;;;2.00;1.00;;;;;11.92;69.94;101136.91;5061773;28;45277;-79
2023/03/27 05:05:21;;;;;;;;;1.00;0.33;;;;;11.97;69.49;101130.06;5066661;28;45358;-78
2023/03/27 05:07:48;;;;;;;;;1.67;1.00;;;;;11.99;69.41;101146.72;5073407;28;45264;-79
2023/03/27 05:10:16;;;;;;;;;3.00;2.00;;;;;12.01;69.51;101145.03;5060892;28;45577;-79
2023/03/27 05:12:46;;;;;;;;;3.00;1.00;;;;;12.04;69.18;101145.16;5054720;28;45481;-78
2023/03/27 05:15:13;;;;;;;;;4.67;2.67;;;;;11.97;69.32;101131.81;5078261;28;45550;-79
2023/03/27 05:17:40;;;;;;;;;3.00;2.00;;;;;11.96;69.37;101146.63;5077673;28;45453;-79
2023/03/27 05:20:07;;;;;;;;;17.75;16.50;;;;;11.87;69.23;101135.81;5076705;28;45470;-72
2023/03/27 05:22:33;;;;;;;;;5.00;5.00;;;;;11.89;69.14;101148.13;5075784;27;45644;-72
2023/03/27 05:25:00;;;;;;;;;11.00;11.00;;;;;11.92;68.86;101145.63;5077476;28;45418;-75
2023/03/27 05:27:26;;;;;;;;;6.00;5.00;;;;;11.88;69.13;101142.84;5058181;28;47706;-78
2023/03/27 05:29:51;;;;;;;;;5.00;3.33;;;;;11.93;69.40;101150.03;5076540;28;45417;-79
2023/03/27 05:32:17;;;;;;;;;1.67;1.00;;;;;11.87;69.05;101136.69;5076224;28;45306;-79
2023/03/27 05:34:42;;;;;;;;;2.67;2.00;;;;;11.88;68.78;101145.47;5077005;28;45495;-72
2023/03/27 05:37:08;;;;;;;;;1.00;1.00;;;;;11.93;68.72;101157.88;5074007;28;46320;-76
2023/03/27 05:39:35;;;;;;;;;2.33;1.00;;;;;11.92;69.04;101160.47;5054479;28;45485;-76
2023/03/27 05:42:00;;;;;;;;;1.33;1.00;;;;;11.88;69.22;101164.66;5076043;28;45449;-79
2023/03/27 05:44:26;;;;;;;;;2.00;0.00;;;;;11.85;69.18;101161.03;5075192;28;45441;-77
2023/03/27 05:46:52;;;;;;;;;2.67;1.00;;;;;11.80;69.34;101147.81;5064339;28;46078;-79
2023/03/27 05:49:17;;;;;;;;;3.00;2.00;;;;;11.79;69.44;101143.41;5076330;28;45398;-78
2023/03/27 05:51:43;;;;;;;;;2.00;1.00;;;;;11.92;69.42;101157.84;5075897;28;45536;-78
2023/03/27 05:54:09;;;;;;;;;3.33;2.33;;;;;11.93;69.17;101152.63;5057762;27;46448;-72
2023/03/27 05:56:34;;;;;;;;;3.00;1.00;;;;;11.99;68.67;101158.94;5059251;28;47557;-74
2023/03/27 05:59:01;;;;;;;;;3.00;3.00;;;;;11.94;68.88;101149.19;5078795;27;45366;-79
2023/03/27 06:01:26;;;;;;;;;2.00;1.00;;;;;12.05;68.42;101160.03;5083906;27;45432;-79
2023/03/27 06:03:54;;;;;;;;;4.33;1.33;;;;;11.99;68.56;101146.72;5067172;27;45390;-79
2023/03/27 06:06:20;;;;;;;;;1.33;0.33;;;;;12.06;68.25;101155.69;5057093;28;48240;-79
2023/03/27 06:08:45;;;;;;;;;1.00;1.00;;;;;12.10;68.76;101174.19;5040678;28;45420;-73
2023/03/27 06:11:14;;;;;;;;;6.25;5.25;;;;;12.11;68.54;101162.84;5074934;28;46070;-75
2023/03/27 06:13:39;;;;;;;;;5.50;4.50;;;;;12.05;68.70;101152.16;5072822;28;45345;-78
2023/03/27 06:16:06;;;;;;;;;13.50;13.50;;;;;12.02;68.68;101151.19;5063109;28;46317;-73
2023/03/27 06:18:32;;;;;;;;;6.25;3.00;;;;;12.08;68.53;101161.88;5065984;28;45522;-77
2023/03/27 06:20:58;;;;;;;;;4.67;3.00;;;;;12.14;68.48;101173.44;5059108;28;45517;-74
2023/03/27 06:23:23;;;;;;;;;3.00;2.00;;;;;12.14;68.69;101176.06;5055346;28;45626;-78
2023/03/27 06:25:51;;;;;;;;;4.25;2.50;;;;;12.19;68.41;101170.97;5045700;28;46908;-73
2023/03/27 06:28:18;;;;;;;;;1.25;1.00;;;;;12.22;68.28;101165.84;5069118;28;45461;-74
2023/03/27 06:30:45;;;;;;;;;1.00;1.00;;;;;12.21;67.96;101164.03;5062357;28;45476;-74
2023/03/27 06:33:11;;;;;;;;;4.00;2.00;;;;;12.15;68.40;101148.13;5072486;28;45344;-78
2023/03/27 06:35:38;;;;;;;;;1.75;1.75;;;;;12.29;68.10;101159.06;5063015;28;45323;-76
2023/03/27 06:38:05;;;;;;;;;5.00;4.50;;;;;12.36;68.12;101168.91;5074908;28;45516;-74
2023/03/27 06:40:34;;;;;;;;;6.50;3.00;;;;;12.41;67.98;101172.56;5077151;28;45510;-79
2023/03/27 06:43:05;;;;;;;;;2.00;2.00;;;;;12.46;68.20;101178.84;5076167;28;45540;-76
2023/03/27 06:45:43;;;;;;;;;3.33;1.00;;;;;12.38;68.91;101192.56;5056928;28;45611;-73
2023/03/27 06:48:09;;;;;;;;;2.00;2.00;;;;;12.26;68.95;101185.16;5075015;28;46139;-74
2023/03/27 06:50:36;;;;;;;;;2.33;2.00;;;;;12.30;69.74;101189.66;5073815;28;45476;-72
2023/03/27 06:53:02;;;;;;;;;0.33;0.33;;;;;12.26;69.47;101191.28;5075352;28;45611;-77
2023/03/27 06:55:30;;;;;;;;;1.67;1.00;;;;;12.27;69.85;101189.56;5068302;28;45505;-78
2023/03/27 06:57:57;;;;;;;;;1.67;0.33;;;;;12.24;69.24;101194.72;5064079;28;45465;-77
2023/03/27 07:00:27;;;;;;;;;1.33;0.67;;;;;12.20;69.00;101198.06;5058400;28;45626;-72
2023/03/27 07:02:58;;;;;;;;;3.00;3.00;;;;;12.21;69.88;101202.44;5075953;28;45338;-75
2023/03/27 07:05:25;;;;;;;;;3.00;1.25;;;;;12.23;68.01;101190.28;5076256;28;45575;-77
2023/03/27 07:07:51;;;;;;;;;4.75;3.00;;;;;12.22;67.15;101199.00;5076323;28;45347;-77
2023/03/27 07:10:17;;;;;;;;;0.00;0.00;;;;;12.27;68.27;101189.56;5074967;28;45557;-75
2023/03/27 07:12:48;;;;;;;;;2.00;0.00;;;;;12.37;67.77;101191.63;5076396;28;45382;-77
2023/03/27 07:15:15;;;;;;;;;4.75;4.25;;;;;12.40;68.09;101190.88;5075950;28;45353;-78
2023/03/27 07:17:42;;;;;;;;;0.00;0.00;;;;;12.48;67.45;101181.53;5076273;28;45376;-78
2023/03/27 07:20:09;;;;;;;;;13.25;11.75;;;;;12.57;68.89;101194.03;5059272;28;45630;-72
2023/03/27 07:22:35;;;;;;;;;4.00;4.00;;;;;12.72;68.28;101189.28;5076667;28;45474;-72
2023/03/27 07:25:02;;;;;;;;;3.00;2.67;;;;;12.80;66.84;101186.91;5076065;28;45405;-74
2023/03/27 07:27:27;;;;;;;;;5.00;4.25;;;;;12.92;66.04;101190.78;5071360;28;45317;-72
2023/03/27 07:29:53;;;;;;;;;5.50;4.00;;;;;12.97;67.09;101188.31;5077124;27;45663;-77
2023/03/27 07:32:18;;;;;;;;;3.00;2.00;;;;;13.10;65.85;101192.19;5078716;28;45327;-72
2023/03/27 07:34:45;;;;;;;;;12.25;11.50;;;;;13.09;65.85;101195.63;5067636;28;45483;-78
2023/03/27 07:37:10;;;;;;;;;4.33;4.00;;;;;13.11;66.31;101184.38;5041518;28;45347;-77
2023/03/27 07:39:36;;;;;;;;;2.00;1.00;;;;;13.17;66.82;101191.53;5078245;28;45189;-76
2023/03/27 07:42:02;;;;;;;;;2.00;1.33;;;;;13.28;66.04;101189.22;5079517;27;45430;-76
2023/03/27 07:44:27;;;;;;;;;6.00;5.25;;;;;13.23;67.01;101185.56;5079010;28;45491;-78
2023/03/27 07:46:53;;;;;;;;;3.67;3.33;;;;;13.21;66.67;101198.66;5078658;28;45352;-77
2023/03/27 07:49:18;;;;;;;;;3.00;2.33;;;;;13.23;67.35;101194.34;5078319;28;45316;-77
2023/03/27 07:51:45;;;;;;;;;3.33;2.00;;;;;13.31;66.91;101199.84;5079211;28;45518;-78
2023/03/27 07:54:12;;;;;;;;;2.00;2.00;;;;;13.37;65.95;101196.47;5057701;28;45423;-77
2023/03/27 07:56:40;;;;;;;;;1.00;1.00;;;;;13.44;65.87;101193.19;5047613;28;45459;-74
2023/03/27 07:59:06;;;;;;;;;1.00;0.33;;;;;13.53;65.97;101196.09;5044843;28;45628;-76
2023/03/27 08:01:33;;;;;;;;;2.00;2.00;;;;;13.67;65.26;101197.38;5079117;28;45426;-76
2023/03/27 08:03:59;;;;;;;;;3.33;2.00;;;;;13.86;65.41;101211.88;5079093;28;45445;-77
2023/03/27 08:06:25;;;;;;;;;2.00;1.00;;;;;13.97;64.51;101206.94;5079059;28;45381;-78
2023/03/27 08:08:51;;;;;;;;;2.67;1.00;;;;;14.17;64.33;101217.09;5078553;28;45466;-77
2023/03/27 08:11:18;;;;;;;;;1.67;0.00;;;;;14.44;64.06;101214.25;5078989;28;46106;-77
2023/03/27 08:13:45;;;;;;;;;1.00;1.00;;;;;14.65;63.65;101214.81;5078565;28;45510;-77
2023/03/27 08:16:13;;;;;;;;;3.33;1.00;;;;;14.82;63.79;101211.69;5078391;28;45320;-78
2023/03/27 08:18:39;;;;;;;;;0.67;0.67;;;;;14.90;62.68;101221.53;5044275;28;45457;-72
2023/03/27 08:21:07;;;;;;;;;6.00;4.33;;;;;15.01;62.12;101220.91;5078329;28;45541;-75
2023/03/27 08:23:34;;;;;;;;;3.00;3.00;;;;;15.05;61.53;101213.09;5078228;28;46280;-78
2023/03/27 08:26:00;;;;;;;;;4.00;2.00;;;;;15.15;61.55;101213.31;5078505;27;45311;-79
2023/03/27 08:28:31;;;;;;;;;1.33;1.00;;;;;15.30;61.09;101214.53;5077780;28;45442;-75
2023/03/27 08:30:57;;;;;;;;;2.00;2.00;;;;;15.49;60.07;101207.00;5078697;28;45536;-78
2023/03/27 08:33:26;;;;;;;;;7.67;6.67;;;;;15.77;60.08;101212.84;5066717;28;46058;-77
2023/03/27 08:35:52;;;;;;;;;3.67;3.33;;;;;15.93;60.24;101206.13;5074211;28;45465;-78
2023/03/27 08:38:18;;;;;;;;;1.33;1.33;;;;;16.03;59.32;101210.72;5078692;28;45398;-77
2023/03/27 08:40:51;;;;;;;;;1.00;1.00;;;;;16.19;58.18;101210.13;5078411;28;45409;-74
2023/03/27 08:43:22;;;;;;;;;3.00;1.00;;;;;16.11;58.33;101211.72;5068018;28;45363;-72
2023/03/27 08:46:00;;;;;;;;;2.67;1.00;;;;;16.11;58.93;101217.00;5048218;28;45303;-73
2023/03/27 08:48:35;;;;;;;;;1.67;1.67;;;;;16.08;58.85;101209.94;5076517;28;45497;-74
2023/03/27 08:51:07;;;;;;;;;2.00;0.67;;;;;15.75;57.28;101204.91;5078184;28;45393;-72
2023/03/27 08:53:43;;;;;;;;;3.00;0.67;;;;;15.63;59.17;101197.63;5070608;28;46043;-75
2023/03/27 08:56:17;;;;;;;;;2.33;1.33;;;;;15.57;59.37;101210.69;5076876;28;47064;-74
2023/03/27 08:58:44;;;;;;;;;4.00;3.00;;;;;15.46;60.26;101218.38;5064032;28;45508;-73
2023/03/27 09:01:29;;;;;;;;;1.00;1.00;;;;;15.44;60.59;101217.44;5077801;27;45615;-75
2023/03/27 09:04:00;;;;;;;;;2.00;1.33;;;;;15.54;60.19;101221.16;5077908;27;45224;-77
2023/03/27 09:06:37;;;;;;;;;2.00;1.00;;;;;15.64;60.06;101220.50;5044458;28;45244;-74
2023/03/27 09:09:23;;;;;;;;;3.00;2.00;;;;;16.09;60.07;101222.28;5058569;28;45461;-73
2023/03/27 09:11:59;;;;;;;;;1.33;0.00;;;;;16.57;58.63;101207.22;5077294;28;45349;-73
2023/03/27 09:14:50;;;;;;;;;1.00;1.00;;;;;17.52;56.79;101220.03;5076909;28;45469;-73
2023/03/27 09:17:31;;;;;;;;;1.00;1.00;;;;;18.00;53.61;101209.16;5077746;28;45482;-74
2023/03/27 09:20:09;;;;;;;;;1.33;0.00;;;;;19.24;52.40;101203.94;5072832;27;45507;-76
2023/03/27 09:22:46;;;;;;;;;0.00;0.00;;;;;20.68;45.37;101201.63;5040113;28;45486;-76
2023/03/27 09:25:31;;;;;;;;;0.00;0.00;;;;;22.31;43.29;101193.81;5055507;28;46990;-75
2023/03/27 09:27:59;;;;;;;;;0.00;0.00;;;;;23.33;43.07;101214.13;5038881;28;45501;-74
2023/03/27 09:30:28;;;;;;;;;0.33;0.00;;;;;23.64;37.02;101209.28;5068181;28;45561;-74
2023/03/27 09:33:02;;;;;;;;;0.00;0.00;;;;;24.27;38.65;101202.16;5077662;28;45476;-77
2023/03/27 09:35:28;;;;;;;;;0.00;0.00;;;;;25.09;36.53;101201.59;5062238;28;45963;-73
2023/03/27 09:38:02;;;;;;;;;0.00;0.00;;;;;25.40;37.41;101204.56;5076759;28;45635;-76
2023/03/27 09:40:50;;;;;;;;;0.67;0.00;;;;;25.26;37.08;101193.28;5077545;27;45472;-73
2023/03/27 09:43:27;;;;;;;;;0.00;0.00;;;;;25.04;35.22;101211.53;5039762;28;45430;-74
2023/03/27 09:45:53;;;;;;;;;1.00;0.00;;;;;24.92;33.81;101204.63;5048169;28;45564;-74
2023/03/27 09:48:49;;;;;;;;;1.00;0.00;;;;;25.20;35.71;101205.81;5077307;28;45198;-79
2023/03/27 09:51:36;;;;;;;;;1.00;0.33;;;;;25.01;34.98;101207.13;5060568;28;45343;-75
2023/03/27 09:54:03;;;;;;;;;0.67;0.00;;;;;24.63;36.11;101210.47;5077179;28;45425;-78
2023/03/27 09:56:30;;;;;;;;;0.00;0.00;;;;;24.28;36.59;101211.94;5077036;28;45457;-74
2023/03/27 09:58:59;;;;;;;;;3.67;1.67;;;;;23.94;36.85;101217.81;5072351;28;45510;-79
2023/03/27 10:01:36;;;;;;;;;2.00;2.00;;;;;23.59;36.32;101227.13;5064079;28;45705;-73
2023/03/27 10:04:12;;;;;;;;;4.00;1.00;;;;;22.72;36.87;101221.88;5077296;28;45666;-81
2023/03/27 10:06:50;;;;;;;;;0.00;0.00;;;;;22.37;38.67;101224.84;5076433;28;46123;-76
2023/03/27 10:09:28;;;;;;;;;1.33;1.00;;;;;21.78;39.86;101229.63;5074908;28;45517;-74
2023/03/27 10:12:03;;;;;;;;;0.33;0.33;;;;;21.26;41.19;101225.38;5072095;28;45458;-75
2023/03/27 10:14:33;;;;;;;;;2.00;1.00;;;;;20.34;43.26;101241.41;5056237;28;45434;-76
2023/03/27 10:16:59;;;;;;;;;8.00;7.00;;;;;20.05;43.78;101236.94;5075359;28;46253;-76
2023/03/27 10:19:31;;;;;;;;;2.67;1.00;;;;;19.84;44.32;101245.72;5075994;28;45838;-75
2023/03/27 10:22:20;;;;;;;;;0.00;0.00;;;;;19.54;45.28;101242.06;5076300;28;45657;-73
2023/03/27 10:24:47;;;;;;;;;0.33;0.33;;;;;19.48;45.80;101240.25;5054628;28;45717;-72
2023/03/27 10:27:24;;;;;;;;;1.33;0.00;;;;;19.35;45.47;101222.53;5076191;28;46117;-79
2023/03/27 10:29:50;;;;;;;;;0.00;0.00;;;;;19.33;44.82;101228.72;5075313;28;45579;-75
2023/03/27 10:32:16;;;;;;;;;2.33;1.67;;;;;19.21;45.58;101221.56;5055412;28;45580;-78
2023/03/27 10:34:53;;;;;;;;;1.00;0.00;;;;;19.28;45.71;101229.56;5055119;28;45603;-73
2023/03/27 10:37:20;;;;;;;;;0.67;0.00;;;;;19.20;45.59;101222.44;5057357;28;47002;-76
2023/03/27 10:39:46;;;;;;;;;0.00;0.00;;;;;19.20;45.38;101215.41;5077150;28;45541;-73
2023/03/27 10:42:15;;;;;;;;;1.00;0.00;;;;;19.24;45.44;101235.72;5057781;28;45394;-80
2023/03/27 10:44:45;;;;;;;;;1.00;0.00;;;;;19.34;43.90;101227.81;5076708;28;45493;-75
2023/03/27 10:47:21;;;;;;;;;1.33;1.00;;;;;19.87;44.10;101232.47;5074099;28;47492;-73
2023/03/27 10:49:46;;;;;;;;;3.00;1.00;;;;;20.37;42.98;101225.47;5071355;28;46284;-75
2023/03/27 10:52:28;;;;;;;;;1.00;0.00;;;;;20.63;42.44;101223.75;5071756;28;46375;-79
2023/03/27 10:55:21;;;;;;;;;1.33;0.67;;;;;20.62;42.24;101224.63;5076376;28;45493;-78
2023/03/27 10:57:54;;;;;;;;;2.00;1.33;;;;;20.49;43.06;101208.66;5069080;28;46164;-78
2023/03/27 11:00:31;;;;;;;;;0.00;0.00;;;;;20.29;43.55;101230.75;5075935;28;45457;-78
2023/03/27 11:03:05;;;;;;;;;2.00;1.00;;;;;20.17;44.02;101222.81;5077355;28;46214;-79
2023/03/27 11:05:36;;;;;;;;;1.00;1.00;;;;;20.15;44.27;101222.78;5080326;28;45483;-79
2023/03/27 11:08:12;;;;;;;;;0.00;0.00;;;;;20.22;43.89;101229.88;5079734;28;45525;-78
2023/03/27 11:10:43;;;;;;;;;1.67;0.67;;;;;20.16;43.55;101215.75;5078716;28;45639;-76
2023/03/27 11:13:16;;;;;;;;;2.33;1.00;;;;;20.53;43.83;101216.66;5080126;28;45425;-78
2023/03/27 11:15:49;;;;;;;;;1.33;0.33;;;;;20.86;43.56;101223.69;5080233;28;45537;-75
2023/03/27 11:18:32;;;;;;;;;2.00;0.00;;;;;20.83;42.44;101212.19;5079332;28;45493;-76
2023/03/27 11:21:07;;;;;;;;;0.67;0.67;;;;;20.68;41.51;101212.25;5077007;28;45529;-76
2023/03/27 11:23:41;;;;;;;;;0.00;0.00;;;;;20.68;42.32;101231.69;5075851;28;45248;-76
2023/03/27 11:26:11;;;;;;;;;0.00;0.00;;;;;20.60;41.31;101225.50;5078029;28;45622;-76
2023/03/27 11:29:19;;;;;;;;;0.33;0.00;;;;;20.02;41.87;101229.84;5078249;28;46181;-78
2023/03/27 11:32:00;;;;;;;;;1.00;0.00;;;;;19.24;42.29;101237.50;5048273;27;45569;-76
2023/03/27 11:34:52;;;;;;;;;0.00;0.00;;;;;19.09;43.32;101230.34;5079059;28;45507;-77
2023/03/27 11:37:46;;;;;;;;;2.00;0.00;;;;;19.10;44.06;101232.13;5072129;28;45608;-80
2023/03/27 11:40:27;;;;;;;;;2.33;1.33;;;;;19.02;43.92;101224.13;5036209;28;48046;-76
2023/03/27 11:42:53;;;;;;;;;1.00;0.00;;;;;19.19;44.04;101234.81;5078143;28;45458;-74